Time;durP1;ratioP1;P1;durP2;ratioP2;P2;SDS_P1;SDS_P2;PMS_P1;PMS_P2;Temp;Humidity;BMP_temperature;BMP_pressure;BME280_temperature;BME280_humidity;BME280_pressure;Samples;Min_cycle;Max_cycle;Signal;HPM_P1;HPM_P2
2023/07/17 00:01:43;;;;;;;;;;;21.80;47.50;;;17.82;79.07;95796.59;4974287;28;19910;-48
2023/07/17 00:04:09;;;;;;;;;;;21.80;47.70;;;17.83;78.95;95797.38;4972987;28;20455;-45
2023/07/17 00:06:35;;;;;;;;;;;21.80;47.80;;;17.82;78.93;95785.03;4974212;28;19952;-45
2023/07/17 00:09:01;;;;;;;;;;;21.80;47.90;;;17.82;79.49;95788.50;4974205;28;19910;-46
2023/07/17 00:11:26;;;;;;;;;;;21.80;48.00;;;17.83;80.20;95797.38;4972856;28;20592;-45
2023/07/17 00:13:52;;;;;;;;;;;21.80;48.10;;;17.84;80.50;95799.00;4974223;28;19952;-45
2023/07/17 00:16:19;;;;;;;;;;;21.80;48.20;;;17.85;80.56;95798.69;4972938;28;20442;-45
2023/07/17 00:18:45;;;;;;;;;;;21.80;48.30;;;17.85;80.48;95789.81;4972641;28;20384;-45
2023/07/17 00:21:11;;;;;;;;;;;21.80;48.40;;;17.88;81.37;95797.28;4973800;28;19910;-46
2023/07/17 00:23:36;;;;;;;;;;;21.80;48.40;;;17.89;80.78;95782.69;4972576;28;19914;-47
2023/07/17 00:26:02;;;;;;;;;;;21.80;48.50;;;17.85;81.51;95777.13;4973038;28;19960;-50
2023/07/17 00:28:28;;;;;;;;;;;21.90;48.60;;;17.74;81.71;95760.38;4972717;28;19921;-46
2023/07/17 00:30:54;;;;;;;;;;;21.80;48.60;;;17.71;81.65;95754.81;4973807;28;19918;-47
2023/07/17 00:33:19;;;;;;;;;;;21.80;48.60;;;17.76;81.98;95774.31;4972876;28;19949;-46
2023/07/17 00:35:45;;;;;;;;;;;21.80;48.70;;;17.78;81.11;95787.53;4972761;28;19909;-50
2023/07/17 00:38:11;;;;;;;;;;;21.80;48.80;;;17.79;79.01;95794.50;4973622;28;19949;-47
2023/07/17 00:40:40;;;;;;;;;;;21.80;48.90;;;17.81;78.96;95803.09;4972734;28;19952;-47
2023/07/17 00:43:11;;;;;;;;;;;21.80;49.50;;;17.83;77.79;95805.47;4973629;28;19910;-52
2023/07/17 00:45:42;;;;;;;;;;;21.80;48.90;;;17.84;80.49;95804.38;4972360;28;19932;-48
2023/07/17 00:48:10;;;;;;;;;;;21.90;49.00;;;17.84;79.40;95801.69;4968177;28;19913;-46
2023/07/17 00:50:38;;;;;;;;;;;21.90;49.00;;;17.88;79.53;95814.25;4971778;28;20300;-48
2023/07/17 00:53:05;;;;;;;;;;;21.90;49.10;;;17.91;78.62;95821.72;4971735;28;19909;-46
2023/07/17 00:55:35;;;;;;;;;;;21.90;49.10;;;17.95;78.49;95820.00;4972045;28;19957;-48
2023/07/17 00:58:02;;;;;;;;;;;21.90;49.10;;;17.98;78.51;95818.59;4972633;28;20396;-47
2023/07/17 01:00:28;;;;;;;;;;;22.00;49.10;;;17.94;76.23;95814.94;4972187;28;19910;-45
2023/07/17 01:02:55;;;;;;;;;;;22.00;49.10;;;17.99;77.84;95815.59;4973185;28;19918;-46
2023/07/17 01:05:21;;;;;;;;;;;22.00;49.10;;;18.01;78.41;95807.19;4972085;28;20021;-46
2023/07/17 01:07:47;;;;;;;;;;;22.00;49.10;;;18.03;78.54;95807.69;4973435;28;20004;-46
2023/07/17 01:10:12;;;;;;;;;;;22.00;49.10;;;18.04;80.17;95804.69;4972468;28;19918;-49
2023/07/17 01:12:38;;;;;;;;;;;22.00;49.20;;;18.07;79.35;95805.97;4988347;28;19910;-48
2023/07/17 01:15:06;;;;;;;;;;;22.00;49.20;;;18.07;79.67;95811.38;4973294;28;19964;-45
2023/07/17 01:17:32;;;;;;;;;;;22.00;49.30;;;18.03;80.84;95811.19;4972388;28;19920;-47
2023/07/17 01:19:58;;;;;;;;;;;22.00;49.40;;;18.00;82.30;95808.31;4972968;28;19949;-45
2023/07/17 01:22:29;;;;;;;;;;;22.00;49.50;;;17.95;84.23;95817.28;4972148;28;19936;-48
2023/07/17 01:24:55;;;;;;;;;;;21.90;49.50;;;17.89;85.62;95829.28;4959513;28;19914;-47
2023/07/17 01:27:21;;;;;;;;;;;21.90;49.70;;;17.70;89.73;95856.38;4973118;28;19909;-45
2023/07/17 01:29:47;;;;;;;;;;;21.80;49.80;;;17.57;92.98;95874.16;4972025;28;19996;-45
2023/07/17 01:32:13;;;;;;;;;;;21.70;50.10;;;17.55;94.28;95879.06;4972922;28;20088;-48
2023/07/17 01:34:39;;;;;;;;;;;21.50;50.30;;;17.49;93.15;95874.88;4972250;28;20290;-46
2023/07/17 01:37:13;;;;;;;;;;;21.40;50.50;;;17.27;95.99;95864.81;4972904;28;19909;-45
2023/07/17 01:39:39;;;;;;;;;;;21.20;50.80;;;17.06;98.00;95829.44;4977202;28;19917;-44
2023/07/17 01:42:05;;;;;;;;;;;21.00;50.90;;;16.98;99.27;95835.50;4975888;28;19918;-43
2023/07/17 01:44:31;;;;;;;;;;;20.90;51.20;;;16.85;100.00;95812.09;4976877;28;19914;-43
2023/07/17 01:46:58;;;;;;;;;;;20.70;51.50;;;16.71;100.00;95812.06;4975664;28;19916;-45
2023/07/17 01:49:24;;;;;;;;;;;20.60;51.80;;;16.58;100.00;95821.72;4977013;28;19910;-45
2023/07/17 01:51:50;;;;;;;;;;;20.40;51.90;;;16.45;100.00;95814.38;4976433;28;19917;-43
2023/07/17 01:54:15;;;;;;;;;;;20.30;52.30;;;16.38;100.00;95827.44;4974642;28;19910;-44
2023/07/17 01:56:41;;;;;;;;;;;20.20;52.40;;;16.21;100.00;95832.56;4976622;28;19910;-43
2023/07/17 01:59:07;;;;;;;;;;;20.10;52.70;;;15.99;100.00;95857.38;4975648;28;20372;-44
2023/07/17 02:01:33;;;;;;;;;;;20.00;52.80;;;16.02;100.00;95854.91;4976410;28;20373;-44
2023/07/17 02:04:00;;;;;;;;;;;20.00;53.10;;;16.07;100.00;95854.00;4975570;28;19925;-45
2023/07/17 02:06:26;;;;;;;;;;;19.90;53.30;;;16.10;100.00;95850.72;4976667;28;19913;-45
2023/07/17 02:08:51;;;;;;;;;;;19.90;53.50;;;16.10;100.00;95850.72;4976756;28;20359;-44
2023/07/17 02:11:17;;;;;;;;;;;19.90;54.30;;;16.07;100.00;95840.56;4975674;28;20281;-45
2023/07/17 02:13:43;;;;;;;;;;;19.80;53.80;;;16.04;100.00;95835.78;4976666;28;19960;-45
2023/07/17 02:16:09;;;;;;;;;;;19.80;54.50;;;16.02;100.00;95844.16;4975437;28;20396;-44
2023/07/17 02:18:34;;;;;;;;;;;19.80;54.00;;;16.02;100.00;95833.41;4974741;28;19909;-45
2023/07/17 02:21:00;;;;;;;;;;;19.80;54.70;;;16.00;100.00;95851.69;4976515;28;19917;-47
2023/07/17 02:23:26;;;;;;;;;;;19.80;54.30;;;16.00;100.00;95862.44;4971919;28;20361;-45
2023/07/17 02:25:52;;;;;;;;;;;19.80;54.40;;;16.02;100.00;95862.16;4971783;28;20377;-45
2023/07/17 02:28:18;;;;;;;;;;;19.80;54.50;;;16.01;100.00;95869.41;4974959;28;19910;-46
2023/07/17 02:30:43;;;;;;;;;;;19.80;54.60;;;16.03;100.00;95861.84;4975823;28;19909;-46
2023/07/17 02:33:09;;;;;;;;;;;19.90;54.70;;;16.04;100.00;95860.75;4975857;28;19914;-47
2023/07/17 02:35:35;;;;;;;;;;;19.90;54.80;;;16.05;100.00;95861.56;4975179;28;19956;-44
2023/07/17 02:38:01;;;;;;;;;;;19.90;54.90;;;16.01;100.00;95858.66;4976253;28;19913;-45
2023/07/17 02:40:27;;;;;;;;;;;19.90;54.90;;;15.98;100.00;95866.50;4989562;28;19971;-46
2023/07/17 02:42:52;;;;;;;;;;;19.90;55.00;;;15.95;100.00;95879.44;4975812;28;19913;-45
2023/07/17 02:45:18;;;;;;;;;;;19.90;55.10;;;15.94;100.00;95891.25;4975555;28;20021;-46
2023/07/17 02:47:44;;;;;;;;;;;19.80;55.20;;;15.94;100.00;95883.19;4974832;28;20000;-45
2023/07/17 02:50:10;;;;;;;;;;;19.80;55.30;;;15.96;100.00;95883.72;4987599;28;19910;-46
2023/07/17 02:52:36;;;;;;;;;;;19.80;55.40;;;15.94;100.00;95880.50;4974739;28;20020;-45
2023/07/17 02:55:04;;;;;;;;;;;19.80;55.40;;;15.90;100.00;95879.50;4973581;28;19996;-45
2023/07/17 02:57:34;;;;;;;;;;;19.80;55.50;;;15.87;100.00;95881.97;4975724;28;19916;-50
2023/07/17 03:00:00;;;;;;;;;;;19.80;55.60;;;15.81;100.00;95873.19;4974232;28;19914;-48
2023/07/17 03:02:27;;;;;;;;;;;19.80;55.70;;;15.83;100.00;95884.44;4975535;28;19937;-46
2023/07/17 03:04:52;;;;;;;;;;;19.80;55.80;;;15.79;100.00;95894.16;4974485;28;19918;-51
2023/07/17 03:07:18;;;;;;;;;;;19.70;55.80;;;15.81;100.00;95893.88;4975634;28;19918;-45
2023/07/17 03:09:44;;;;;;;;;;;19.80;56.00;;;15.84;100.00;95883.34;4975414;28;19910;-46
2023/07/17 03:12:10;;;;;;;;;;;19.80;56.10;;;15.87;100.00;95884.66;4974180;28;19913;-49
2023/07/17 03:14:35;;;;;;;;;;;19.70;56.10;;;15.83;100.00;95887.13;4975170;28;19913;-48
2023/07/17 03:17:01;;;;;;;;;;;19.70;56.10;;;15.79;100.00;95883.41;4974573;28;19914;-47
2023/07/17 03:19:27;;;;;;;;;;;19.70;56.10;;;15.76;100.00;95878.63;4975420;28;19933;-49
2023/07/17 03:21:53;;;;;;;;;;;19.60;56.20;;;15.69;100.00;95886.25;4974880;28;19992;-50
2023/07/17 03:24:19;;;;;;;;;;;19.60;56.30;;;15.62;100.00;95883.91;4965762;28;20448;-47
2023/07/17 03:26:45;;;;;;;;;;;19.60;56.40;;;15.60;100.00;95890.63;4975256;28;20012;-47
2023/07/17 03:29:11;;;;;;;;;;;19.60;56.50;;;15.57;100.00;95883.94;4973788;28;20447;-48
2023/07/17 03:31:36;;;;;;;;;;;19.50;56.60;;;15.59;100.00;95889.84;4975018;28;19909;-48
2023/07/17 03:34:02;;;;;;;;;;;19.50;56.70;;;15.60;100.00;95886.06;4973917;28;20321;-46
2023/07/17 03:36:28;;;;;;;;;;;19.50;56.80;;;15.60;100.00;95891.44;4975107;28;20401;-45
2023/07/17 03:38:53;;;;;;;;;;;19.50;56.90;;;15.59;100.00;95895.22;4974878;28;19910;-50
2023/07/17 03:41:21;;;;;;;;;;;19.50;57.00;;;15.61;100.00;95890.34;4969113;28;20436;-49
2023/07/17 03:43:47;;;;;;;;;;;19.50;57.00;;;15.62;100.00;95900.00;4971155;28;20008;-46
2023/07/17 03:46:16;;;;;;;;;;;19.60;57.10;;;15.67;100.00;95893.81;4972778;28;19929;-45
2023/07/17 03:48:41;;;;;;;;;;;19.60;57.20;;;15.70;100.00;95894.03;4975067;28;20284;-45
2023/07/17 03:51:07;;;;;;;;;;;19.60;57.30;;;15.71;100.00;95898.31;4989703;28;19909;-45
2023/07/17 03:53:33;;;;;;;;;;;19.60;57.40;;;15.76;100.00;95896.63;4973483;28;19909;-45
2023/07/17 03:55:58;;;;;;;;;;;19.60;57.50;;;15.78;100.00;95911.38;4974482;28;20297;-44
2023/07/17 03:58:24;;;;;;;;;;;19.70;57.50;;;15.81;100.00;95904.63;4973383;28;19916;-45
2023/07/17 04:00:50;;;;;;;;;;;19.70;57.60;;;15.81;100.00;95900.06;4974407;28;19924;-44
2023/07/17 04:03:16;;;;;;;;;;;19.80;57.60;;;15.82;100.00;95901.63;4974418;28;20001;-45
2023/07/17 04:05:44;;;;;;;;;;;19.80;58.30;;;15.82;100.00;95900.84;4972794;28;26809;-45
2023/07/17 04:08:10;;;;;;;;;;;19.80;57.70;;;15.86;100.00;95907.25;4974391;28;20270;-42
2023/07/17 04:10:36;;;;;;;;;;;19.80;57.70;;;15.90;100.00;95909.06;4973473;28;19963;-45
2023/07/17 04:13:02;;;;;;;;;;;19.80;57.80;;;15.92;100.00;95904.19;4974227;28;20004;-43
2023/07/17 04:15:29;;;;;;;;;;;19.90;57.90;;;15.95;100.00;95902.78;4974207;28;19936;-43
2023/07/17 04:17:55;;;;;;;;;;;19.90;57.90;;;15.99;100.00;95905.72;4970234;28;20428;-43
2023/07/17 04:20:20;;;;;;;;;;;19.90;57.90;;;15.99;100.00;95917.28;4964314;28;19914;-44
2023/07/17 04:22:46;;;;;;;;;;;19.90;57.90;;;16.01;100.00;95901.63;4972932;28;19914;-43
2023/07/17 04:25:12;;;;;;;;;;;20.00;58.00;;;16.03;100.00;95906.75;4973620;28;19980;-44
2023/07/17 04:27:38;;;;;;;;;;;20.00;58.00;;;16.05;100.00;95912.63;4974153;28;19940;-45
2023/07/17 04:30:05;;;;;;;;;;;20.00;58.00;;;16.05;100.00;95907.25;4973651;28;20357;-43
2023/07/17 04:32:30;;;;;;;;;;;20.10;58.10;;;16.07;100.00;95915.81;4974127;28;19924;-43
2023/07/17 04:34:57;;;;;;;;;;;20.10;58.10;;;16.10;100.00;95915.22;4972815;28;19909;-43
2023/07/17 04:37:22;;;;;;;;;;;20.10;58.10;;;16.14;100.00;95918.94;4973755;28;19914;-43
2023/07/17 04:39:48;;;;;;;;;;;20.20;58.20;;;16.18;100.00;95928.81;4973579;28;19909;-45
2023/07/17 04:42:14;;;;;;;;;;;20.30;58.20;;;16.25;100.00;95936.50;4966636;28;20104;-45
2023/07/17 04:44:40;;;;;;;;;;;20.30;58.30;;;16.33;100.00;95940.44;4973715;28;20377;-43
2023/07/17 04:47:06;;;;;;;;;;;20.40;58.30;;;16.34;100.00;95944.72;4972901;28;19964;-46
2023/07/17 04:49:31;;;;;;;;;;;20.40;58.40;;;16.39;100.00;95944.66;4973602;28;19914;-45
2023/07/17 04:51:57;;;;;;;;;;;20.50;58.40;;;16.46;100.00;95941.56;4972420;28;20052;-43
2023/07/17 04:54:23;;;;;;;;;;;20.60;58.50;;;16.47;100.00;95933.22;4973888;28;19979;-45
2023/07/17 04:56:48;;;;;;;;;;;20.60;58.40;;;16.50;100.00;95934.50;4973462;28;19914;-45
2023/07/17 04:59:15;;;;;;;;;;;20.60;58.30;;;16.52;100.00;95941.19;4972538;28;19995;-46
2023/07/17 05:01:40;;;;;;;;;;;20.70;58.30;;;16.54;100.00;95947.06;4973514;28;20008;-45
2023/07/17 05:04:06;;;;;;;;;;;20.80;58.30;;;16.64;100.00;95956.88;4972177;28;20001;-43
2023/07/17 05:06:32;;;;;;;;;;;20.90;58.20;;;16.69;100.00;95951.41;4960343;28;19933;-44
2023/07/17 05:08:58;;;;;;;;;;;21.00;58.20;;;16.71;100.00;95943.84;4973250;28;20029;-45
2023/07/17 05:11:23;;;;;;;;;;;21.00;58.20;;;16.80;100.00;95944.81;4969989;28;19940;-46
2023/07/17 05:13:49;;;;;;;;;;;21.10;58.20;;;16.87;100.00;95958.66;4962596;28;20282;-44
2023/07/17 05:16:15;;;;;;;;;;;21.10;58.20;;;16.92;100.00;95957.75;4972276;28;20393;-43
2023/07/17 05:18:41;;;;;;;;;;;21.20;58.10;;;16.90;100.00;95948.41;4969383;28;20012;-43
2023/07/17 05:21:06;;;;;;;;;;;21.30;58.10;;;16.95;100.00;95956.38;4971481;28;19909;-49
2023/07/17 05:23:32;;;;;;;;;;;21.30;58.10;;;16.98;100.00;95956.59;4966739;28;20400;-47
2023/07/17 05:26:00;;;;;;;;;;;21.30;58.10;;;16.99;100.00;95946.66;4972442;28;19918;-46
2023/07/17 05:28:28;;;;;;;;;;;21.30;58.10;;;17.13;100.00;95955.53;4971687;28;20012;-44
2023/07/17 05:30:56;;;;;;;;;;;21.40;58.10;;;17.24;100.00;95956.94;4973228;28;20257;-47
2023/07/17 05:33:24;;;;;;;;;;;21.50;58.10;;;17.40;100.00;95970.13;4971648;28;19917;-44
2023/07/17 05:35:50;;;;;;;;;;;21.70;58.10;;;17.62;100.00;95970.22;4971934;28;19913;-44
2023/07/17 05:38:16;;;;;;;;;;;21.90;58.20;;;17.78;100.00;95971.53;4972760;28;19917;-44
2023/07/17 05:40:42;;;;;;;;;;;22.10;58.20;;;17.90;100.00;95970.25;4971820;28;19936;-43
2023/07/17 05:43:09;;;;;;;;;;;22.20;58.10;;;17.96;100.00;95960.94;4966801;28;20016;-44
2023/07/17 05:45:35;;;;;;;;;;;22.40;58.00;;;17.96;100.00;95947.47;4971296;28;19969;-44
2023/07/17 05:48:01;;;;;;;;;;;22.40;57.90;;;17.95;100.00;95943.97;4971259;28;19916;-45
2023/07/17 05:50:26;;;;;;;;;;;22.50;58.40;;;18.11;100.00;95949.03;4972548;28;20004;-47
2023/07/17 05:52:52;;;;;;;;;;;22.60;57.60;;;18.41;100.00;95951.03;4971459;28;20004;-48
2023/07/17 05:55:18;;;;;;;;;;;22.80;57.60;;;18.73;100.00;95954.63;4973005;28;19916;-45
2023/07/17 05:57:44;;;;;;;;;;;23.00;57.60;;;18.90;100.00;95945.84;4973078;28;20379;-43
2023/07/17 06:00:14;;;;;;;;;;;23.20;57.50;;;19.05;100.00;95947.34;4970412;28;19909;-47
2023/07/17 06:02:41;;;;;;;;;;;23.40;57.30;;;19.28;100.00;95945.41;4972283;28;20412;-46
2023/07/17 06:05:09;;;;;;;;;;;23.70;57.30;;;19.47;100.00;95953.28;4971714;28;19921;-45
2023/07/17 06:07:34;;;;;;;;;;;23.90;57.10;;;19.66;97.45;95953.06;4972980;28;20027;-43
2023/07/17 06:10:00;;;;;;;;;;;24.10;56.90;;;19.79;94.99;95955.63;4971975;28;20004;-44
2023/07/17 06:12:26;;;;;;;;;;;24.30;56.70;;;20.01;95.86;95968.22;4962144;28;19910;-44
2023/07/17 06:14:52;;;;;;;;;;;24.60;56.40;;;20.11;91.02;95972.53;4971129;28;19921;-43
2023/07/17 06:17:17;;;;;;;;;;;24.90;56.20;;;20.22;88.88;95975.75;4971484;28;19909;-42
2023/07/17 06:19:43;;;;;;;;;;;25.10;55.90;;;20.43;88.70;95974.03;4963701;28;19913;-42
2023/07/17 06:22:09;;;;;;;;;;;25.20;55.60;;;20.61;89.27;95971.34;4971938;28;19914;-45
2023/07/17 06:24:35;;;;;;;;;;;25.40;55.60;;;20.66;86.57;95966.56;4974307;28;19920;-41
2023/07/17 06:27:01;;;;;;;;;;;25.40;55.40;;;20.68;84.80;95960.81;4976417;28;20004;-41
2023/07/17 06:29:27;;;;;;;;;;;25.50;55.30;;;20.70;84.27;95962.09;4970787;28;20005;-43
2023/07/17 06:31:53;;;;;;;;;;;25.60;55.10;;;20.92;87.19;95963.03;4967850;28;19973;-43
2023/07/17 06:34:18;;;;;;;;;;;25.80;55.00;;;21.18;81.98;95965.66;4974948;28;20446;-43
2023/07/17 06:36:45;;;;;;;;;;;26.10;54.80;;;21.52;81.67;95964.78;4975961;28;19920;-46
2023/07/17 06:39:10;;;;;;;;;;;26.50;54.60;;;21.89;77.96;95968.59;4975911;28;19944;-42
2023/07/17 06:41:36;;;;;;;;;;;26.90;54.30;;;22.30;77.86;95991.50;4971107;28;20433;-42
2023/07/17 06:44:02;;;;;;;;;;;27.40;54.10;;;22.75;75.37;95987.34;4973996;28;20369;-44
2023/07/17 06:46:28;;;;;;;;;;;27.90;53.70;;;23.05;73.14;95975.25;4974612;28;19913;-43
2023/07/17 06:48:54;;;;;;;;;;;28.40;53.40;;;23.20;70.18;95986.63;4975824;28;19909;-43
2023/07/17 06:51:19;;;;;;;;;;;28.70;52.90;;;23.29;70.88;95996.28;4976836;28;19989;-43
2023/07/17 06:53:45;;;;;;;;;;;28.80;52.60;;;23.46;68.92;95987.13;4974126;28;19917;-45
2023/07/17 06:56:11;;;;;;;;;;;28.80;52.30;;;23.39;69.06;95986.13;4975716;28;19909;-44
2023/07/17 06:58:37;;;;;;;;;;;28.80;52.00;;;23.37;71.59;95974.78;4974652;28;20001;-46
2023/07/17 07:01:03;;;;;;;;;;;28.80;51.80;;;23.27;67.26;95968.63;4976038;28;20329;-45
2023/07/17 07:03:29;;;;;;;;;;;28.90;51.70;;;23.41;73.23;95981.94;4974898;28;19917;-45
2023/07/17 07:06:04;;;;;;;;;;;28.90;51.40;;;23.60;73.39;95978.69;4974403;28;20000;-43
2023/07/17 07:08:31;;;;;;;;;;;29.10;51.30;;;23.72;66.10;95986.06;4975419;28;19956;-43
2023/07/17 07:11:00;;;;;;;;;;;29.40;51.00;;;23.87;64.66;95990.81;4967034;28;19981;-43
2023/07/17 07:13:27;;;;;;;;;;;29.50;50.70;;;23.92;61.81;95993.34;4962631;28;19964;-44
2023/07/17 07:15:53;;;;;;;;;;;29.60;50.50;;;24.05;62.96;95977.78;4975259;28;20373;-46
2023/07/17 07:18:20;;;;;;;;;;;29.70;50.20;;;24.20;62.39;95982.53;4968087;28;20369;-44
2023/07/17 07:20:53;;;;;;;;;;;29.90;49.80;;;24.34;63.66;95986.81;4968648;28;19949;-46
2023/07/17 07:23:20;;;;;;;;;;;30.00;49.70;;;24.19;58.39;95988.31;4974179;28;19956;-44
2023/07/17 07:25:46;;;;;;;;;;;30.10;49.50;;;24.31;57.27;95993.75;4974863;28;20000;-43
2023/07/17 07:28:12;;;;;;;;;;;30.00;49.10;;;24.22;56.69;95996.59;4974029;28;19920;-44
2023/07/17 07:30:38;;;;;;;;;;;30.00;48.90;;;24.30;58.21;95992.16;4974823;28;19944;-46
2023/07/17 07:33:05;;;;;;;;;;;29.90;48.70;;;24.34;59.31;95995.78;4967853;28;19949;-45
2023/07/17 07:35:31;;;;;;;;;;;30.00;48.50;;;24.43;61.40;96001.13;4967568;28;19924;-45
2023/07/17 07:37:57;;;;;;;;;;;30.00;48.40;;;24.38;65.53;95995.88;4975056;28;19910;-43
2023/07/17 07:40:23;;;;;;;;;;;29.90;48.20;;;24.27;62.98;95994.78;4973899;28;19945;-44
2023/07/17 07:42:49;;;;;;;;;;;29.90;48.90;;;24.23;62.16;95991.97;4968246;28;19913;-43
2023/07/17 07:45:16;;;;;;;;;;;29.70;48.10;;;24.01;61.94;95994.00;4974467;28;20265;-43
2023/07/17 07:47:42;;;;;;;;;;;29.60;48.00;;;24.01;63.37;95987.78;4973377;28;19948;-44
2023/07/17 07:50:10;;;;;;;;;;;29.60;48.00;;;24.24;62.13;95990.81;4974818;28;20025;-44
2023/07/17 07:52:36;;;;;;;;;;;29.80;47.80;;;24.59;61.35;96001.19;4973617;28;20380;-44
2023/07/17 07:55:02;;;;;;;;;;;30.30;47.60;;;25.00;59.36;95999.25;4974533;28;19967;-43
2023/07/17 07:57:28;;;;;;;;;;;30.80;47.30;;;25.19;58.02;96002.13;4974565;28;19917;-44
2023/07/17 07:59:53;;;;;;;;;;;31.20;46.90;;;25.53;59.25;96005.34;4973046;28;19909;-43
2023/07/17 08:10:53;;;;;;;;;;;32.00;45.90;;;26.08;52.80;96014.56;4970457;28;19923;-43
2023/07/17 08:14:30;;;;;;;;;;;32.10;46.20;;;26.17;55.86;96017.09;4974130;28;20020;-45
2023/07/17 08:16:56;;;;;;;;;;;32.10;45.40;;;26.13;53.91;96006.06;4961801;28;20487;-44
2023/07/17 08:19:50;;;;;;;;;;;32.00;45.40;;;26.41;51.92;96003.19;4973814;28;20008;-46
2023/07/17 08:22:15;;;;;;;;;;;32.20;45.10;;;26.42;52.37;96002.06;4972870;28;19918;-44
2023/07/17 08:24:41;;;;;;;;;;;32.20;44.90;;;26.25;53.31;95994.25;4973434;28;20427;-47
2023/07/17 08:27:07;;;;;;;;;;;32.30;44.70;;;26.62;54.28;96000.19;4973920;28;19963;-44
2023/07/17 08:29:33;;;;;;;;;;;32.60;44.40;;;26.72;51.29;96012.47;4971753;28;19921;-43
2023/07/17 08:31:58;;;;;;;;;;;33.00;44.10;;;26.96;49.57;96011.41;4973921;28;19988;-43
2023/07/17 08:34:24;;;;;;;;;;;33.30;43.70;;;26.78;49.72;96008.31;4972573;28;19909;-46
2023/07/17 08:36:50;;;;;;;;;;;33.60;43.40;;;26.84;49.50;96017.81;4973677;28;19992;-46
2023/07/17 08:39:44;;;;;;;;;;;33.70;43.20;;;26.74;50.90;96016.44;4973571;28;20056;-48
2023/07/17 08:42:11;;;;;;;;;;;33.80;42.90;;;26.66;49.88;96005.72;4972488;28;20290;-44
2023/07/17 08:44:37;;;;;;;;;;;33.80;42.80;;;26.71;49.37;96008.97;4972440;28;19914;-45
2023/07/17 08:47:07;;;;;;;;;;;33.90;42.70;;;26.81;49.66;96012.28;4971745;28;19909;-44
2023/07/17 08:49:35;;;;;;;;;;;33.90;42.40;;;26.92;50.76;96010.53;4972692;28;19914;-43
2023/07/17 08:52:03;;;;;;;;;;;33.90;42.40;;;27.14;49.93;96001.66;4972019;28;19980;-47
2023/07/17 08:54:29;;;;;;;;;;;33.90;42.40;;;27.31;51.23;95994.94;4973219;28;20292;-43
2023/07/17 08:57:03;;;;;;;;;;;33.90;42.30;;;27.34;49.67;95994.19;4973444;28;19914;-46
2023/07/17 08:59:31;;;;;;;;;;;33.80;42.20;;;27.36;48.22;96007.50;4972167;28;19917;-44
2023/07/17 09:01:57;;;;;;;;;;;33.90;42.10;;;27.47;48.42;96005.75;4973270;28;20288;-44
2023/07/17 09:08:04;;;;;;;;;;;34.20;41.70;;;27.95;46.22;96008.16;4973969;28;19916;-44
2023/07/17 09:14:11;;;;;;;;;;;34.50;41.50;;;28.29;46.86;95990.69;4972470;28;20009;-44
2023/07/17 09:16:40;;;;;;;;;;;34.60;41.20;;;28.61;46.46;95998.59;4972304;28;20000;-47
2023/07/17 09:19:05;;;;;;;;;;;34.80;41.10;;;28.75;42.21;95995.25;4969245;28;20011;-43
2023/07/17 09:21:31;;;;;;;;;;;35.20;41.00;;;29.05;44.53;95998.81;4973031;28;19996;-45
2023/07/17 09:23:57;;;;;;;;;;;35.50;40.60;;;29.38;42.92;95994.44;4972148;28;19917;-45
2023/07/17 09:26:25;;;;;;;;;;;35.70;40.20;;;29.47;41.61;95991.41;4973016;28;19916;-44
2023/07/17 09:28:57;;;;;;;;;;;36.10;39.90;;;29.92;40.92;95992.22;4972289;28;20381;-47
2023/07/17 09:31:25;;;;;;;;;;;36.40;39.50;;;30.57;42.06;95997.00;4971149;28;20373;-44
2023/07/17 09:33:56;;;;;;;;;;;36.70;39.20;;;30.85;38.68;95990.09;4973111;28;20361;-44
2023/07/17 09:36:23;;;;;;;;;;;37.30;39.10;;;31.19;40.77;95998.88;4972494;28;20262;-45
2023/07/17 09:38:58;;;;;;;;;;;38.00;38.50;;;31.11;37.51;95989.00;4973278;28;19910;-46
2023/07/17 09:41:27;;;;;;;;;;;38.50;37.70;;;31.28;38.21;95991.03;4970981;28;20040;-45
2023/07/17 09:44:06;;;;;;;;;;;38.70;37.30;;;31.47;38.17;95989.94;4973047;28;19918;-46
2023/07/17 09:46:35;;;;;;;;;;;38.80;36.80;;;31.77;36.33;95984.03;4972296;28;19913;-48
2023/07/17 09:49:09;;;;;;;;;;;39.10;36.40;;;31.88;40.04;95967.53;4973321;28;20304;-44
2023/07/17 09:51:38;;;;;;;;;;;39.20;36.10;;;32.07;37.21;95968.34;4973252;28;19910;-45
2023/07/17 09:54:04;;;;;;;;;;;39.40;35.80;;;32.54;35.83;95980.09;4968937;28;19910;-44
2023/07/17 09:56:32;;;;;;;;;;;39.70;35.80;;;32.78;35.73;95975.69;4973319;28;19910;-46
2023/07/17 09:59:13;;;;;;;;;;;40.10;35.10;;;32.99;34.96;95972.88;4966685;28;19909;-45
2023/07/17 10:01:45;;;;;;;;;;;40.40;34.80;;;33.16;35.52;95977.53;4987821;28;19991;-50
2023/07/17 10:04:18;;;;;;;;;;;40.70;35.20;;;32.53;34.97;95978.50;4985427;23;19969;-51
2023/07/17 10:06:49;;;;;;;;;;;40.80;34.30;;;32.34;35.85;95979.72;4970605;28;19917;-50
2023/07/17 10:09:20;;;;;;;;;;;40.90;33.80;;;32.32;35.66;95987.59;4962071;28;19952;-54
2023/07/17 10:11:47;;;;;;;;;;;40.90;33.60;;;32.46;32.52;95984.84;4960135;28;20367;-50
2023/07/17 10:14:15;;;;;;;;;;;41.00;33.60;;;32.19;35.16;95963.22;4965723;28;20300;-49
2023/07/17 10:16:42;;;;;;;;;;;40.90;33.20;;;31.89;34.80;95979.38;4946706;28;20000;-49
2023/07/17 10:19:09;;;;;;;;;;;40.80;33.00;;;32.08;34.66;95978.19;4956398;28;20304;-49
2023/07/17 10:21:56;;;;;;;;;;;40.60;32.90;;;31.73;34.40;95977.75;4954398;28;20335;-49
2023/07/17 10:24:24;;;;;;;;;;;40.50;32.90;;;31.85;36.17;95976.59;4954493;28;20356;-51
2023/07/17 10:26:51;;;;;;;;;;;40.30;32.80;;;31.70;37.15;95969.50;4954698;28;19941;-53
2023/07/17 10:29:50;;;;;;;;;;;40.20;32.80;;;31.28;37.37;95957.25;4955009;28;19976;-49
2023/07/17 10:32:18;;;;;;;;;;;40.00;32.80;;;31.22;34.64;95956.03;4943974;28;20012;-49
2023/07/17 10:34:53;;;;;;;;;;;39.70;32.80;;;31.69;37.20;95954.16;4953272;28;19933;-51
2023/07/17 10:37:40;;;;;;;;;;;39.50;32.70;;;31.83;37.68;95953.38;4952368;28;19910;-49
2023/07/17 10:40:24;;;;;;;;;;;39.50;32.70;;;31.86;37.60;95945.09;4962685;28;19914;-50
2023/07/17 10:42:51;;;;;;;;;;;39.50;32.70;;;31.85;37.20;95953.78;4955269;28;19910;-52
2023/07/17 10:45:18;;;;;;;;;;;39.60;32.60;;;32.13;37.35;95959.28;4954748;28;20711;-48
2023/07/17 10:47:49;;;;;;;;;;;39.80;32.60;;;32.49;34.74;95957.25;4954830;28;20005;-52
2023/07/17 10:50:17;;;;;;;;;;;40.10;32.40;;;32.57;36.96;95958.03;4955868;28;20008;-48
2023/07/17 10:52:43;;;;;;;;;;;40.40;32.10;;;32.77;36.21;95950.06;4954182;28;20257;-49
2023/07/17 10:55:09;;;;;;;;;;;40.60;31.90;;;32.95;34.50;95953.53;4955476;28;19910;-50
2023/07/17 10:57:38;;;;;;;;;;;40.70;31.90;;;32.60;33.97;95950.94;4955614;28;19910;-53
2023/07/17 11:00:05;;;;;;;;;;;40.60;31.60;;;32.44;36.88;95954.94;4954620;28;19910;-48
2023/07/17 11:02:31;;;;;;;;;;;40.70;31.40;;;32.80;36.19;95951.25;4955216;28;20009;-48
2023/07/17 11:05:02;;;;;;;;;;;40.70;31.40;;;32.91;32.70;95943.72;4954152;28;20467;-48
2023/07/17 11:07:36;;;;;;;;;;;40.80;31.10;;;32.81;32.74;95933.50;4955386;28;19921;-51
2023/07/17 11:10:03;;;;;;;;;;;40.90;31.00;;;32.32;33.62;95946.28;4954722;28;19910;-49
2023/07/17 11:12:29;;;;;;;;;;;40.80;30.60;;;32.35;34.52;95940.75;4953811;28;19910;-48
2023/07/17 11:14:55;;;;;;;;;;;40.70;30.40;;;32.77;33.31;95943.78;4955070;28;19918;-48
2023/07/17 11:17:20;;;;;;;;;;;40.60;30.50;;;31.34;35.48;95944.69;4954603;28;20323;-48
2023/07/17 11:19:46;;;;;;;;;;;40.50;31.00;;;31.84;36.00;95939.22;4955231;28;19910;-49
2023/07/17 11:22:15;;;;;;;;;;;40.40;30.50;;;32.11;35.43;95936.84;4954139;28;19921;-50
2023/07/17 11:24:41;;;;;;;;;;;40.30;30.50;;;32.47;34.69;95934.06;4954434;28;19984;-49
2023/07/17 11:27:07;;;;;;;;;;;40.40;30.60;;;32.80;36.27;95937.47;4955128;28;20384;-49
2023/07/17 11:29:44;;;;;;;;;;;40.60;30.60;;;33.26;35.83;95930.94;4954159;28;19920;-50
2023/07/17 11:32:11;;;;;;;;;;;40.70;30.60;;;33.40;36.35;95930.84;4967894;28;19909;-53